createdAt,value
2022-09-21T00:01:39.057Z,3.60
2022-09-21T00:04:05.588Z,4.13
2022-09-21T00:06:32.957Z,4.30
2022-09-21T00:08:59.512Z,5.07
2022-09-21T00:11:28.064Z,4.50
2022-09-21T00:14:00.832Z,4.53
2022-09-21T00:16:28.220Z,4.20
2022-09-21T00:18:54.677Z,4.20
2022-09-21T00:21:21.883Z,4.40
2022-09-21T00:23:48.372Z,5.30
2022-09-21T00:26:16.466Z,3.90
2022-09-21T00:28:44.606Z,4.00
2022-09-21T00:31:12.436Z,3.75
2022-09-21T00:33:39.661Z,3.47
2022-09-21T00:36:07.361Z,3.63
2022-09-21T00:38:34.528Z,3.80
2022-09-21T00:41:01.274Z,4.10
2022-09-21T00:43:27.705Z,5.80
2022-09-21T00:46:00.067Z,4.05
2022-09-21T00:48:26.654Z,4.05
2022-09-21T00:50:54.972Z,3.50
2022-09-21T00:53:22.219Z,4.40
2022-09-21T00:55:51.196Z,3.55
2022-09-21T00:58:20.361Z,3.83
2022-09-21T01:00:47.013Z,3.58
2022-09-21T01:03:13.519Z,4.28
2022-09-21T01:05:39.911Z,3.85
2022-09-21T01:08:07.442Z,3.75
2022-09-21T01:10:46.872Z,4.78
2022-09-21T01:13:33.489Z,5.22
2022-09-21T01:16:20.212Z,3.83
2022-09-21T01:18:47.791Z,3.95
2022-09-21T01:21:24.187Z,5.43
2022-09-21T01:23:53.468Z,5.68
2022-09-21T01:26:38.525Z,4.22
2022-09-21T01:29:04.888Z,4.28
2022-09-21T01:31:39.197Z,4.13
2022-09-21T01:34:09.445Z,4.97
2022-09-21T01:36:37.385Z,4.95
2022-09-21T01:39:09.487Z,5.60
2022-09-21T01:41:37.728Z,5.18
2022-09-21T01:44:09.544Z,3.65
2022-09-21T01:46:37.305Z,3.97
2022-09-21T01:49:09.042Z,4.05
2022-09-21T01:51:36.263Z,3.40
2022-09-21T01:54:10.199Z,4.25
2022-09-21T01:56:38.971Z,3.42
2022-09-21T01:59:08.245Z,4.10
2022-09-21T02:01:37.724Z,4.03
2022-09-21T02:04:11.404Z,3.67
2022-09-21T02:06:39.731Z,3.55
2022-09-21T02:09:05.985Z,3.40
2022-09-21T02:11:32.243Z,3.53
2022-09-21T02:13:58.961Z,4.18
2022-09-21T02:16:36.936Z,2.97
2022-09-21T02:19:03.171Z,3.75
2022-09-21T02:21:41.587Z,3.60
2022-09-21T02:24:13.304Z,3.25
2022-09-21T02:26:59.870Z,3.95
2022-09-21T02:29:33.423Z,5.00
2022-09-21T02:32:05.290Z,4.05
2022-09-21T02:34:52.680Z,3.45
2022-09-21T02:37:24.975Z,3.72
2022-09-21T02:40:07.639Z,3.55
2022-09-21T02:42:36.176Z,3.97
2022-09-21T02:45:09.356Z,3.90
2022-09-21T02:47:50.943Z,3.90
2022-09-21T02:50:21.222Z,3.97
2022-09-21T02:52:47.762Z,3.55
2022-09-21T02:55:14.923Z,3.97
2022-09-21T02:57:41.485Z,3.60
2022-09-21T03:00:08.120Z,4.40
2022-09-21T03:02:42.251Z,3.40
2022-09-21T03:05:09.302Z,3.70
2022-09-21T03:07:35.631Z,4.20
2022-09-21T03:10:01.926Z,3.80
2022-09-21T03:12:28.191Z,3.78
2022-09-21T03:14:55.954Z,3.90
2022-09-21T03:17:22.279Z,4.07
2022-09-21T03:19:49.041Z,3.67
2022-09-21T03:22:17.016Z,3.97
2022-09-21T03:24:46.457Z,4.00
2022-09-21T03:27:16.959Z,3.42
2022-09-21T03:29:43.328Z,3.55
2022-09-21T03:32:09.814Z,3.83
2022-09-21T03:34:36.091Z,5.00
2022-09-21T03:37:03.129Z,3.60
2022-09-21T03:39:29.422Z,3.63
2022-09-21T03:41:58.492Z,3.45
2022-09-21T03:44:25.779Z,3.13
2022-09-21T03:46:52.581Z,4.13
2022-09-21T03:49:19.125Z,3.80
2022-09-21T03:51:45.556Z,3.90
2022-09-21T03:54:12.201Z,3.83
2022-09-21T03:56:38.492Z,3.65
2022-09-21T03:59:04.869Z,3.25
2022-09-21T04:01:31.426Z,3.03
2022-09-21T04:03:57.734Z,3.50
2022-09-21T04:06:25.029Z,3.33
2022-09-21T04:08:52.398Z,5.28
2022-09-21T04:11:22.907Z,4.15
2022-09-21T04:13:50.190Z,4.57
2022-09-21T04:16:17.851Z,3.35
2022-09-21T04:18:44.129Z,3.83
2022-09-21T04:21:10.414Z,3.65
2022-09-21T04:23:36.690Z,3.80
2022-09-21T04:26:02.988Z,4.28
2022-09-21T04:28:29.745Z,3.90
2022-09-21T04:30:56.117Z,3.42
2022-09-21T04:33:23.838Z,3.65
2022-09-21T04:35:56.043Z,3.40
2022-09-21T04:38:22.316Z,3.22
2022-09-21T04:40:56.227Z,3.63
2022-09-21T04:43:23.177Z,3.65
2022-09-21T04:45:49.442Z,3.65
2022-09-21T04:48:15.727Z,3.65
2022-09-21T04:50:42.037Z,3.92
2022-09-21T04:53:08.287Z,3.42
2022-09-21T04:55:34.590Z,2.90
2022-09-21T04:58:00.974Z,3.47
2022-09-21T05:00:27.270Z,3.13
2022-09-21T05:02:53.520Z,3.47
2022-09-21T05:05:19.871Z,4.90
2022-09-21T05:07:46.110Z,4.25
2022-09-21T05:10:13.097Z,4.22
2022-09-21T05:12:41.128Z,3.92
2022-09-21T05:15:08.189Z,4.28
2022-09-21T05:17:34.469Z,5.53
2022-09-21T05:20:00.789Z,4.70
2022-09-21T05:22:27.689Z,3.95
2022-09-21T05:24:54.027Z,4.43
2022-09-21T05:27:20.291Z,4.22
2022-09-21T05:29:46.768Z,3.70
2022-09-21T05:32:28.097Z,4.22
2022-09-21T05:35:14.979Z,3.75
2022-09-21T05:37:50.586Z,3.60
2022-09-21T05:40:17.155Z,3.53
2022-09-21T05:42:43.565Z,3.80
2022-09-21T05:45:14.278Z,4.15
2022-09-21T05:47:55.498Z,4.13
2022-09-21T05:50:29.784Z,4.55
2022-09-21T05:53:19.291Z,3.87
2022-09-21T05:55:58.714Z,3.63
2022-09-21T05:58:30.808Z,4.50
2022-09-21T06:01:08.399Z,4.25
2022-09-21T06:03:36.164Z,3.50
2022-09-21T06:06:02.598Z,3.33
2022-09-21T06:08:28.883Z,4.60
2022-09-21T06:10:55.252Z,3.70
2022-09-21T06:13:21.514Z,4.40
2022-09-21T06:15:47.761Z,3.78
2022-09-21T06:18:17.768Z,3.70
2022-09-21T06:20:44.625Z,3.13
2022-09-21T06:23:12.040Z,4.03
2022-09-21T06:25:38.328Z,4.05
2022-09-21T06:28:13.363Z,3.25
2022-09-21T06:30:42.094Z,4.22
2022-09-21T06:33:08.982Z,3.85
2022-09-21T06:35:35.855Z,4.70
2022-09-21T06:38:03.407Z,3.28
2022-09-21T06:40:30.238Z,4.88
2022-09-21T06:43:00.506Z,3.83
2022-09-21T06:45:27.456Z,4.32
2022-09-21T06:47:54.450Z,4.32
2022-09-21T06:50:21.164Z,4.32
2022-09-21T06:52:47.497Z,4.85
2022-09-21T06:55:14.084Z,5.03
2022-09-21T06:57:40.539Z,5.50
2022-09-21T07:00:07.969Z,5.30
2022-09-21T07:02:34.803Z,5.25
2022-09-21T07:05:01.363Z,5.80
2022-09-21T07:07:30.221Z,5.75
2022-09-21T07:10:06.708Z,6.07
2022-09-21T07:12:34.582Z,6.65
2022-09-21T07:15:01.453Z,6.57
2022-09-21T07:17:31.715Z,5.50
2022-09-21T07:19:57.979Z,5.57
2022-09-21T07:22:24.371Z,6.63
2022-09-21T07:24:50.707Z,5.18
2022-09-21T07:27:16.954Z,5.78
2022-09-21T07:29:43.228Z,5.25
2022-09-21T07:32:09.977Z,5.32
2022-09-21T07:34:37.156Z,5.30
2022-09-21T07:37:03.655Z,4.93
2022-09-21T07:39:30.195Z,5.38
2022-09-21T07:41:58.502Z,4.55
2022-09-21T07:44:25.095Z,5.20
2022-09-21T07:46:51.396Z,5.30
2022-09-21T07:49:17.667Z,5.45
2022-09-21T07:51:43.948Z,5.60
2022-09-21T07:54:13.468Z,5.03
2022-09-21T07:56:39.820Z,5.13
2022-09-21T07:59:06.093Z,5.20
2022-09-21T08:01:36.385Z,5.20
2022-09-21T08:04:05.154Z,4.45
2022-09-21T08:06:32.942Z,4.05
2022-09-21T08:08:59.792Z,5.30
2022-09-21T08:11:27.591Z,3.92
2022-09-21T08:13:55.261Z,4.47
2022-09-21T08:16:22.017Z,4.32
2022-09-21T08:18:48.499Z,4.47
2022-09-21T08:21:14.734Z,3.97
2022-09-21T08:23:42.764Z,4.97
2022-09-21T08:26:11.374Z,4.40
2022-09-21T08:28:38.673Z,4.07
2022-09-21T08:31:05.978Z,4.25
2022-09-21T08:33:32.592Z,3.92
2022-09-21T08:35:59.765Z,3.97
2022-09-21T08:38:26.432Z,3.40
2022-09-21T08:40:53.087Z,4.00
2022-09-21T08:43:29.470Z,4.57
2022-09-21T08:45:55.997Z,3.97
2022-09-21T08:48:28.465Z,3.67
2022-09-21T08:50:59.502Z,4.00
2022-09-21T08:53:30.512Z,3.53
2022-09-21T08:55:57.207Z,4.15
2022-09-21T08:58:24.543Z,3.38
2022-09-21T09:01:07.246Z,3.90
2022-09-21T09:03:41.807Z,4.22
2022-09-21T09:06:26.611Z,4.03
2022-09-21T09:08:59.166Z,3.63
2022-09-21T09:11:57.884Z,3.80
2022-09-21T09:14:40.818Z,3.92
2022-09-21T09:17:19.680Z,3.25
2022-09-21T09:19:56.284Z,3.33
2022-09-21T09:22:26.523Z,3.28
2022-09-21T09:24:56.872Z,3.42
2022-09-21T09:27:43.410Z,3.65
2022-09-21T09:30:35.782Z,3.42
2022-09-21T09:33:02.010Z,3.28
2022-09-21T09:35:34.178Z,3.25
2022-09-21T09:38:12.730Z,2.75
2022-09-21T09:40:53.254Z,2.88
2022-09-21T09:43:32.965Z,3.75
2022-09-21T09:46:03.423Z,2.95
2022-09-21T09:48:32.800Z,3.28
2022-09-21T09:50:59.067Z,2.90
2022-09-21T09:53:26.335Z,2.50
2022-09-21T09:55:54.319Z,2.85
2022-09-21T09:58:20.724Z,3.20
2022-09-21T10:00:50.502Z,3.33
2022-09-21T10:03:18.375Z,5.13
2022-09-21T10:05:44.767Z,3.90
2022-09-21T10:08:31.381Z,3.90
2022-09-21T10:10:57.727Z,3.10
2022-09-21T10:13:30.048Z,3.10
2022-09-21T10:16:00.791Z,3.50
2022-09-21T10:18:41.036Z,4.00
2022-09-21T10:21:17.096Z,2.40
2022-09-21T10:23:47.674Z,3.58
2022-09-21T10:26:14.423Z,2.78
2022-09-21T10:28:55.503Z,3.20
2022-09-21T10:31:23.704Z,2.80
2022-09-21T10:34:02.438Z,2.40
2022-09-21T10:36:30.308Z,2.55
2022-09-21T10:38:56.871Z,2.80
2022-09-21T10:41:23.155Z,2.47
2022-09-21T10:43:50.764Z,2.50
2022-09-21T10:46:17.579Z,2.35
2022-09-21T10:48:47.512Z,3.47
2022-09-21T10:51:27.231Z,4.15
2022-09-21T10:53:54.539Z,3.35
2022-09-21T10:56:21.006Z,2.38
2022-09-21T10:59:05.878Z,3.17
2022-09-21T11:01:32.235Z,2.20
2022-09-21T11:04:10.063Z,2.17
2022-09-21T11:06:44.706Z,1.90
2022-09-21T11:09:10.963Z,2.60
2022-09-21T11:11:43.385Z,2.22
2022-09-21T11:14:24.744Z,2.10
2022-09-21T11:17:03.594Z,3.03
2022-09-21T11:19:35.946Z,2.40
2022-09-21T11:22:07.003Z,3.35
2022-09-21T11:24:53.513Z,4.20
2022-09-21T11:27:22.623Z,2.22
2022-09-21T11:29:54.782Z,2.40
2022-09-21T11:32:28.683Z,2.78
2022-09-21T11:35:27.609Z,2.42
2022-09-21T11:38:05.756Z,2.47
2022-09-21T11:40:37.277Z,2.38
2022-09-21T11:43:08.845Z,2.53
2022-09-21T11:45:57.458Z,2.20
2022-09-21T11:48:32.621Z,3.75
2022-09-21T11:51:17.847Z,2.65
2022-09-21T11:53:54.273Z,2.47
2022-09-21T11:56:31.738Z,3.28
2022-09-21T11:59:16.754Z,3.35
2022-09-21T12:02:03.348Z,2.50
2022-09-21T12:04:55.585Z,2.80
2022-09-21T12:07:37.234Z,2.35
2022-09-21T12:10:22.360Z,2.47
2022-09-21T12:12:54.318Z,2.30
2022-09-21T12:15:26.447Z,2.70
2022-09-21T12:17:57.424Z,2.60
2022-09-21T12:20:35.028Z,2.60
2022-09-21T12:23:03.465Z,2.10
2022-09-21T12:25:36.015Z,2.65
2022-09-21T12:28:22.639Z,3.50
2022-09-21T12:30:53.892Z,2.75
2022-09-21T12:33:24.116Z,2.28
2022-09-21T12:36:11.705Z,2.80
2022-09-21T12:38:44.359Z,2.42
2022-09-21T12:41:16.900Z,2.17
2022-09-21T12:43:51.129Z,2.50
2022-09-21T12:46:21.780Z,2.60
2022-09-21T12:48:48.284Z,2.40
2022-09-21T12:51:33.127Z,2.75
2022-09-21T12:54:00.974Z,2.65
2022-09-21T12:56:51.189Z,1.83
2022-09-21T12:59:50.062Z,2.28
2022-09-21T13:02:37.203Z,2.05
2022-09-21T13:05:07.172Z,2.08
2022-09-21T13:08:06.381Z,2.00
2022-09-21T13:10:51.787Z,1.92
2022-09-21T13:13:38.486Z,2.63
2022-09-21T13:16:21.360Z,2.35
2022-09-21T13:18:54.172Z,2.10
2022-09-21T13:21:26.431Z,2.28
2022-09-21T13:23:55.679Z,2.38
2022-09-21T13:26:37.351Z,2.13
2022-09-21T13:29:06.060Z,2.70
2022-09-21T13:31:50.913Z,2.00
2022-09-21T13:34:23.183Z,2.08
2022-09-21T13:37:16.703Z,1.90
2022-09-21T13:39:58.133Z,2.08
2022-09-21T13:42:30.480Z,2.03
2022-09-21T13:44:58.244Z,1.92
2022-09-21T13:47:45.745Z,2.00
2022-09-21T13:50:18.019Z,2.20
2022-09-21T13:52:45.801Z,1.80
2022-09-21T13:55:24.282Z,2.25
2022-09-21T13:57:54.302Z,2.38
2022-09-21T14:00:23.371Z,2.33
2022-09-21T14:02:53.739Z,2.88
2022-09-21T14:05:23.391Z,2.40
2022-09-21T14:07:57.730Z,2.38
2022-09-21T14:10:24.752Z,2.50
2022-09-21T14:12:51.031Z,2.95
2022-09-21T14:15:19.327Z,2.70
2022-09-21T14:17:46.050Z,3.47
2022-09-21T14:20:34.654Z,2.50
2022-09-21T14:23:16.327Z,2.15
2022-09-21T14:25:53.269Z,2.30
2022-09-21T14:28:26.800Z,3.40
2022-09-21T14:30:59.298Z,2.50
2022-09-21T14:33:29.103Z,3.05
2022-09-21T14:35:55.955Z,2.30
2022-09-21T14:38:24.273Z,2.75
2022-09-21T14:40:52.185Z,2.28
2022-09-21T14:43:25.951Z,3.38
2022-09-21T14:46:01.724Z,2.75
2022-09-21T14:48:34.454Z,2.83
2022-09-21T14:51:22.706Z,2.28
2022-09-21T14:54:13.162Z,2.38
2022-09-21T14:56:39.420Z,2.30
2022-09-21T14:59:12.462Z,2.75
2022-09-21T15:01:42.128Z,2.15
2022-09-21T15:04:37.629Z,2.80
2022-09-21T15:07:31.825Z,2.22
2022-09-21T15:10:16.623Z,4.00
2022-09-21T15:12:47.376Z,2.58
2022-09-21T15:15:23.106Z,4.60
2022-09-21T15:17:59.197Z,2.80
2022-09-21T15:20:27.439Z,2.83
2022-09-21T15:22:54.220Z,2.65
2022-09-21T15:25:20.777Z,2.95
2022-09-21T15:27:47.346Z,2.95
2022-09-21T15:30:24.435Z,3.05
2022-09-21T15:32:57.938Z,2.67
2022-09-21T15:35:27.961Z,3.00
2022-09-21T15:37:55.119Z,2.78
2022-09-21T15:40:26.105Z,2.70
2022-09-21T15:43:11.279Z,3.05
2022-09-21T15:45:37.523Z,3.28
2022-09-21T15:48:06.963Z,2.40
2022-09-21T15:50:33.499Z,2.75
2022-09-21T15:53:02.304Z,2.60
2022-09-21T15:55:29.846Z,2.47
2022-09-21T15:57:57.333Z,2.70
2022-09-21T16:00:46.677Z,2.45
2022-09-21T16:03:23.563Z,2.80
2022-09-21T16:05:51.425Z,2.53
2022-09-21T16:08:28.482Z,2.90
2022-09-21T16:11:10.802Z,3.42
2022-09-21T16:13:55.486Z,2.63
2022-09-21T16:16:21.808Z,3.23
2022-09-21T16:18:48.083Z,2.50
2022-09-21T16:21:14.295Z,2.78
2022-09-21T16:23:40.609Z,2.67
2022-09-21T16:26:07.089Z,2.92
2022-09-21T16:28:42.353Z,2.88
2022-09-21T16:31:22.387Z,2.60
2022-09-21T16:33:49.135Z,4.00
2022-09-21T16:36:25.461Z,4.28
2022-09-21T16:38:54.538Z,2.63
2022-09-21T16:41:21.439Z,3.13
2022-09-21T16:43:49.084Z,3.55
2022-09-21T16:46:15.399Z,3.03
2022-09-21T16:48:41.883Z,2.55
2022-09-21T16:51:14.967Z,3.40
2022-09-21T16:53:41.323Z,3.85
2022-09-21T16:56:15.504Z,2.95
2022-09-21T16:58:43.624Z,2.75
2022-09-21T17:01:10.935Z,3.55
2022-09-21T17:03:37.767Z,2.58
2022-09-21T17:06:05.286Z,3.20
2022-09-21T17:08:32.677Z,2.95
2022-09-21T17:11:03.108Z,3.88
2022-09-21T17:13:30.387Z,3.53
2022-09-21T17:15:58.517Z,4.25
2022-09-21T17:18:24.827Z,3.60
2022-09-21T17:20:51.237Z,4.47
2022-09-21T17:23:17.517Z,3.75
2022-09-21T17:25:44.707Z,3.08
2022-09-21T17:28:12.970Z,3.60
2022-09-21T17:30:39.233Z,3.35
2022-09-21T17:33:06.004Z,3.45
2022-09-21T17:35:41.709Z,3.50
2022-09-21T17:38:12.402Z,5.63
2022-09-21T17:40:40.716Z,5.88
2022-09-21T17:43:13.019Z,6.03
2022-09-21T17:45:42.432Z,5.10
2022-09-21T17:48:12.925Z,5.53
2022-09-21T17:50:39.242Z,3.55
2022-09-21T17:53:24.240Z,3.38
2022-09-21T17:55:54.258Z,3.10
2022-09-21T17:58:43.204Z,4.38
2022-09-21T18:01:13.690Z,4.15
2022-09-21T18:03:44.478Z,3.90
2022-09-21T18:06:11.278Z,2.95
2022-09-21T18:08:38.545Z,3.35
2022-09-21T18:11:11.095Z,2.92
2022-09-21T18:13:44.434Z,3.65
2022-09-21T18:16:33.650Z,3.80
2022-09-21T18:19:05.846Z,2.75
2022-09-21T18:21:33.737Z,3.22
2022-09-21T18:24:08.517Z,3.42
2022-09-21T18:26:35.184Z,3.53
2022-09-21T18:29:12.586Z,3.45
2022-09-21T18:31:53.326Z,2.85
2022-09-21T18:34:31.635Z,3.13
2022-09-21T18:37:10.451Z,3.75
2022-09-21T18:39:47.284Z,3.50
2022-09-21T18:42:34.834Z,3.88
2022-09-21T18:45:11.974Z,3.60
2022-09-21T18:47:44.387Z,3.83
2022-09-21T18:50:23.437Z,4.43
2022-09-21T18:53:08.728Z,4.15
2022-09-21T18:55:37.181Z,4.20
2022-09-21T18:58:03.650Z,4.05
2022-09-21T19:00:35.039Z,5.28
2022-09-21T19:03:17.063Z,5.22
2022-09-21T19:05:52.518Z,4.47
2022-09-21T19:08:22.194Z,4.13
2022-09-21T19:10:54.789Z,4.82
2022-09-21T19:13:32.434Z,5.22
2022-09-21T19:16:01.889Z,5.18
2022-09-21T19:18:28.205Z,5.07
2022-09-21T19:21:07.494Z,5.05
2022-09-21T19:23:55.372Z,7.25
2022-09-21T19:26:38.917Z,4.68
2022-09-21T19:29:22.573Z,5.18
2022-09-21T19:31:48.910Z,6.30
2022-09-21T19:34:17.099Z,4.88
2022-09-21T19:36:44.341Z,5.45
2022-09-21T19:39:11.027Z,5.70
2022-09-21T19:41:43.921Z,4.50
2022-09-21T19:44:32.495Z,5.95
2022-09-21T19:47:10.267Z,4.30
2022-09-21T19:49:46.170Z,4.65
2022-09-21T19:52:14.700Z,3.88
2022-09-21T19:54:59.623Z,4.50
2022-09-21T19:57:44.703Z,5.22
2022-09-21T20:00:12.735Z,4.15
2022-09-21T20:02:58.053Z,3.63
2022-09-21T20:05:34.202Z,4.57
2022-09-21T20:08:11.720Z,4.90
2022-09-21T20:10:42.091Z,4.80
2022-09-21T20:13:26.193Z,5.38
2022-09-21T20:15:56.879Z,4.78
2022-09-21T20:18:27.190Z,4.95
2022-09-21T20:20:53.602Z,4.88
2022-09-21T20:23:19.997Z,4.95
2022-09-21T20:25:51.191Z,4.97
2022-09-21T20:28:17.634Z,4.70
2022-09-21T20:30:44.379Z,3.60
2022-09-21T20:33:13.721Z,4.20
2022-09-21T20:35:41.367Z,5.40
2022-09-21T20:38:07.627Z,4.22
2022-09-21T20:40:34.656Z,4.40
2022-09-21T20:43:01.461Z,4.50
2022-09-21T20:45:28.468Z,5.25
2022-09-21T20:47:55.205Z,3.75
2022-09-21T20:50:21.943Z,4.45
2022-09-21T20:52:48.297Z,4.10
2022-09-21T20:55:17.255Z,4.32
2022-09-21T20:57:44.129Z,3.80
2022-09-21T21:00:12.588Z,4.63
2022-09-21T21:02:39.062Z,4.63
2022-09-21T21:05:05.649Z,4.13
2022-09-21T21:07:32.424Z,3.75
2022-09-21T21:09:58.714Z,4.50
2022-09-21T21:12:25.425Z,5.82
2022-09-21T21:14:51.695Z,5.30
2022-09-21T21:17:18.433Z,5.22
2022-09-21T21:19:44.970Z,4.80
2022-09-21T21:22:12.245Z,4.75
2022-09-21T21:24:41.656Z,5.28
2022-09-21T21:27:11.045Z,4.63
2022-09-21T21:29:38.108Z,4.60
2022-09-21T21:32:04.959Z,5.75
2022-09-21T21:34:31.360Z,4.32
2022-09-21T21:36:57.658Z,4.80
2022-09-21T21:39:23.943Z,5.47
2022-09-21T21:41:50.275Z,5.35
2022-09-21T21:44:16.566Z,5.20
2022-09-21T21:46:43.311Z,5.03
2022-09-21T21:49:09.650Z,5.18
2022-09-21T21:51:36.065Z,5.72
2022-09-21T21:54:02.405Z,5.50
2022-09-21T21:56:29.623Z,5.25
2022-09-21T21:58:56.013Z,4.97
2022-09-21T22:01:24.562Z,4.80
2022-09-21T22:03:54.602Z,6.25
2022-09-21T22:06:21.368Z,4.82
2022-09-21T22:08:47.749Z,4.97
2022-09-21T22:11:14.665Z,5.15
2022-09-21T22:13:41.243Z,4.80
2022-09-21T22:16:09.598Z,5.35
2022-09-21T22:18:36.120Z,4.80
2022-09-21T22:21:10.389Z,5.78
2022-09-21T22:23:37.031Z,5.30
2022-09-21T22:26:05.382Z,5.18
2022-09-21T22:28:32.190Z,5.05
2022-09-21T22:30:59.552Z,5.38
2022-09-21T22:33:28.917Z,4.57
2022-09-21T22:36:06.255Z,5.65
2022-09-21T22:38:33.329Z,4.38
2022-09-21T22:41:03.981Z,4.88
2022-09-21T22:43:30.399Z,5.32
2022-09-21T22:45:56.698Z,4.90
2022-09-21T22:48:23.254Z,5.05
2022-09-21T22:50:49.544Z,5.43
2022-09-21T22:53:15.826Z,4.70
2022-09-21T22:55:42.088Z,4.88
2022-09-21T22:58:08.350Z,5.85
2022-09-21T23:00:34.634Z,4.30
2022-09-21T23:03:00.916Z,4.10
2022-09-21T23:05:27.215Z,5.18
2022-09-21T23:07:54.735Z,4.53
2022-09-21T23:10:22.652Z,4.63
2022-09-21T23:12:52.140Z,4.20
2022-09-21T23:15:18.855Z,4.65
2022-09-21T23:17:45.550Z,4.10
2022-09-21T23:20:11.855Z,4.57
2022-09-21T23:22:38.646Z,4.30
2022-09-21T23:25:05.439Z,4.93
2022-09-21T23:27:31.771Z,4.45
2022-09-21T23:29:58.053Z,5.97
2022-09-21T23:32:24.453Z,5.07
2022-09-21T23:34:50.723Z,4.25
2022-09-21T23:37:17.231Z,5.88
2022-09-21T23:39:43.534Z,4.72
2022-09-21T23:42:09.816Z,4.70
2022-09-21T23:44:36.096Z,5.35
2022-09-21T23:47:02.657Z,5.22
2022-09-21T23:49:29.007Z,5.55
2022-09-21T23:51:55.286Z,5.70
2022-09-21T23:54:21.571Z,5.20
2022-09-21T23:56:47.841Z,5.40
2022-09-21T23:59:14.151Z,6.10
